TFM - Tactical Decision Aid (Experimental) INFO Settings
 
 

ID: Runway Winds: CIG/VIS Threshold: METAR Board: Map:

kiad - Washington-Dulles Intl

Updated at: 1843 UTC 24 Oct 2014
Latest TAF at: 1734 UTC 24 Oct 2014

TAF Board

Time1752Z24/19Z24/20Z24/21Z24/22Z24/23Z25/00Z25/01Z25/02Z25/03Z25/04Z25/05Z25/06Z25/07Z
TypeOBSPRVLPRVLPRVLPRVLPRVLPRVLPRVLPRVLPRVLPRVLPRVLPRVLPRVL
VIS10>6>6>6>6>6>6>6>6>6>6>6>6>6
CIG250--------------------------
CoverBKNSCTSCTSCTSCTSCTSCTSCTSCTSCTSCTFEWFEWFEW
FltCat--VFRVFRVFRVFRVFRVFRVFRVFRVFRVFRVFRVFRVFR
WX----------------------------
WDir330310310310310310310310310310310310310310
WSpd111515158888888444
WGst20242424--------------------
TAF
KIAD 241734Z 2418/2524 31015G24KT P6SM FEW150 SCT200
  FM242200 31008KT P6SM FEW150 SCT200
  FM250500 31004KT P6SM FEW200
  FM251700 27008KT P6SM FEW250
  FM252100 25007KT P6SM FEW040


METAR
KIAD 241752Z 33011G20KT 10SM BKN250 18/04 A2994 RMK AO2 SLP136 T01780039 10178 20106 58023

TAF/METAR Board Legend

Potential Impact
  None Marginal Slight Moderate High
Visibility (sm) > ≤X≤ <
Ceiling (100 ft) > ≤X≤ <
Wind Speed (kt) <10 10≤X<20 20≤X<30 ≥30
Wind Gust (kt) <15 15≤X<25 25≤X<35 ≥35
Weather No Wx Reported VCTS -TS,-FZRA TS,FZRA +TS,+FZRA


Notice: Undefined index: kiad in /caws/site/new_awc/application/modules/trafficflowmgmt/controllers/TdaController.php on line 173

Notice: Undefined index: kiad in /caws/site/new_awc/application/modules/trafficflowmgmt/controllers/TdaController.php on line 174